Time;durP1;ratioP1;P1;durP2;ratioP2;P2;SDS_P1;SDS_P2;PMS_P1;PMS_P2;Temp;Humidity;BMP_temperature;BMP_pressure;BME280_temperature;BME280_humidity;BME280_pressure;Samples;Min_cycle;Max_cycle;Signal;HPM_P1;HPM_P2
2023/12/02 05:19:27;;;;;;;107.40;40.43;;;;;;;;;;6220256;22;1407323;-89
2023/12/02 05:21:53;;;;;;;103.17;40.73;;;;;;;;;;6279492;22;20307;-90
2023/12/02 05:24:18;;;;;;;107.13;40.80;;;;;;;;;;6253100;22;20055;-91
2023/12/02 05:26:44;;;;;;;101.60;40.50;;;;;;;;;;6265782;22;20326;-91
2023/12/02 05:29:09;;;;;;;96.50;40.67;;;;;;;;;;6280408;22;19995;-89
2023/12/02 05:31:37;;;;;;;101.87;41.63;;;;;;;;;;6250950;22;20019;-91
2023/12/02 05:34:02;;;;;;;100.73;41.53;;;;;;;;;;6251865;22;19992;-90
2023/12/02 05:36:28;;;;;;;101.47;42.03;;;;;;;;;;6278215;22;20067;-90
2023/12/02 05:38:53;;;;;;;100.57;38.57;;;;;;;;;;6277580;22;19996;-90
2023/12/02 05:41:18;;;;;;;94.33;39.10;;;;;;;;;;6277462;22;20004;-90
2023/12/02 05:43:44;;;;;;;94.17;38.67;;;;;;;;;;6277979;22;19995;-90
2023/12/02 05:46:19;;;;;;;93.67;37.17;;;;;;;;;;6277705;22;20317;-91
2023/12/02 05:48:44;;;;;;;100.87;37.43;;;;;;;;;;6277514;22;20003;-91
2023/12/02 05:51:12;;;;;;;91.87;36.50;;;;;;;;;;6278870;22;20302;-91
2023/12/02 05:53:38;;;;;;;90.43;35.97;;;;;;;;;;6255434;22;20000;-89
2023/12/02 05:56:03;;;;;;;100.07;36.90;;;;;;;;;;6252251;22;20326;-91
2023/12/02 05:58:30;;;;;;;87.17;37.17;;;;;;;;;;6259362;22;20003;-90
2023/12/02 06:00:55;;;;;;;99.00;38.33;;;;;;;;;;6278270;22;20007;-90
2023/12/02 06:03:21;;;;;;;111.53;42.63;;;;;;;;;;6251251;22;20027;-90
2023/12/02 06:05:46;;;;;;;120.47;43.20;;;;;;;;;;6250800;22;20561;-91
2023/12/02 06:08:11;;;;;;;122.30;45.30;;;;;;;;;;6252230;22;20002;-89
2023/12/02 06:10:37;;;;;;;129.77;44.77;;;;;;;;;;6277570;22;19996;-90
2023/12/02 06:13:02;;;;;;;130.20;47.20;;;;;;;;;;6250275;22;19999;-89
2023/12/02 06:15:28;;;;;;;122.17;46.60;;;;;;;;;;6277871;22;20076;-90
2023/12/02 06:17:56;;;;;;;137.40;48.20;;;;;;;;;;6249922;22;20071;-89
2023/12/02 06:20:24;;;;;;;115.10;43.47;;;;;;;;;;6276758;22;20553;-90
2023/12/02 06:22:50;;;;;;;108.53;42.47;;;;;;;;;;6249641;22;19999;-90
2023/12/02 06:25:15;;;;;;;104.33;41.70;;;;;;;;;;6276916;22;20099;-90
2023/12/02 06:27:41;;;;;;;100.00;39.50;;;;;;;;;;6277832;22;20027;-92
2023/12/02 06:30:06;;;;;;;104.83;41.00;;;;;;;;;;6277391;22;20003;-89
2023/12/02 06:32:32;;;;;;;93.67;39.70;;;;;;;;;;6277482;22;19991;-88
2023/12/02 06:34:57;;;;;;;109.83;40.73;;;;;;;;;;6278816;22;20023;-89
2023/12/02 06:37:22;;;;;;;114.07;42.97;;;;;;;;;;6278381;22;19996;-90
2023/12/02 06:39:48;;;;;;;120.90;44.30;;;;;;;;;;6249759;22;19996;-90
2023/12/02 06:42:13;;;;;;;109.03;40.90;;;;;;;;;;6249553;22;20007;-90
2023/12/02 06:44:40;;;;;;;102.80;40.43;;;;;;;;;;6250050;22;20244;-88
2023/12/02 06:47:06;;;;;;;101.57;41.00;;;;;;;;;;6249104;22;19992;-89
2023/12/02 06:49:31;;;;;;;97.67;39.63;;;;;;;;;;6276509;22;20066;-89
2023/12/02 06:51:56;;;;;;;101.27;39.97;;;;;;;;;;6249380;22;20012;-88
2023/12/02 06:54:22;;;;;;;106.03;40.70;;;;;;;;;;6249592;22;19996;-91
2023/12/02 06:56:47;;;;;;;96.50;41.10;;;;;;;;;;6276234;22;20023;-91
2023/12/02 06:59:12;;;;;;;102.33;39.10;;;;;;;;;;6276081;22;20327;-91
2023/12/02 07:01:38;;;;;;;106.87;40.93;;;;;;;;;;6248946;22;20004;-89
2023/12/02 07:04:03;;;;;;;94.10;39.33;;;;;;;;;;6248881;22;20045;-93
2023/12/02 07:06:28;;;;;;;109.17;42.67;;;;;;;;;;6249159;22;20461;-92
2023/12/02 07:08:54;;;;;;;116.63;44.17;;;;;;;;;;6276193;22;19998;-90
2023/12/02 07:11:20;;;;;;;105.80;43.00;;;;;;;;;;6249192;22;20311;-90
2023/12/02 07:13:45;;;;;;;122.77;45.87;;;;;;;;;;6276445;22;19996;-89
2023/12/02 07:16:11;;;;;;;133.80;49.10;;;;;;;;;;6276138;22;20072;-90
2023/12/02 07:18:37;;;;;;;148.17;52.37;;;;;;;;;;6249068;22;20406;-89
2023/12/02 07:21:02;;;;;;;132.57;50.03;;;;;;;;;;6276554;22;19999;-89
2023/12/02 07:23:31;;;;;;;152.90;53.67;;;;;;;;;;6250808;22;20042;-90
2023/12/02 07:25:56;;;;;;;146.70;54.07;;;;;;;;;;6251191;22;19995;-91
2023/12/02 07:28:22;;;;;;;150.17;53.87;;;;;;;;;;6265492;22;20016;-91
2023/12/02 07:30:50;;;;;;;139.97;50.90;;;;;;;;;;6275623;22;20000;-90
2023/12/02 07:33:16;;;;;;;125.50;47.03;;;;;;;;;;6291852;22;19992;-91
2023/12/02 07:35:42;;;;;;;126.57;45.90;;;;;;;;;;6249002;22;20037;-89
2023/12/02 07:38:08;;;;;;;111.20;44.40;;;;;;;;;;6249183;22;20050;-89
2023/12/02 07:40:34;;;;;;;115.83;45.77;;;;;;;;;;6276496;22;19999;-90
2023/12/02 07:42:59;;;;;;;119.57;44.43;;;;;;;;;;6276318;22;20369;-90
2023/12/02 07:45:25;;;;;;;114.13;42.50;;;;;;;;;;6250158;22;19999;-89
2023/12/02 07:47:50;;;;;;;139.37;46.90;;;;;;;;;;6242360;22;20315;-91
2023/12/02 07:50:16;;;;;;;133.10;46.87;;;;;;;;;;6249135;22;20318;-90
2023/12/02 07:52:42;;;;;;;116.93;43.20;;;;;;;;;;6224371;22;19995;-91
2023/12/02 07:55:08;;;;;;;107.33;42.40;;;;;;;;;;6249594;22;20066;-92
2023/12/02 07:57:33;;;;;;;118.87;43.67;;;;;;;;;;6250534;22;20002;-91
2023/12/02 07:59:59;;;;;;;125.37;46.87;;;;;;;;;;6249430;22;20004;-91
2023/12/02 08:02:24;;;;;;;116.43;44.87;;;;;;;;;;6250504;22;19999;-90
2023/12/02 08:04:50;;;;;;;121.13;41.97;;;;;;;;;;6286510;22;20015;-90
2023/12/02 08:07:15;;;;;;;112.73;42.90;;;;;;;;;;6287701;22;19992;-90
2023/12/02 08:09:40;;;;;;;108.17;41.60;;;;;;;;;;6263160;22;20441;-91
2023/12/02 08:12:06;;;;;;;107.40;43.20;;;;;;;;;;6286611;22;20021;-92
2023/12/02 08:14:31;;;;;;;114.03;43.70;;;;;;;;;;6294742;22;20002;-90
2023/12/02 08:16:57;;;;;;;110.07;42.23;;;;;;;;;;6296287;22;19995;-91
2023/12/02 08:19:22;;;;;;;107.67;41.73;;;;;;;;;;6298861;22;20031;-89
2023/12/02 08:21:47;;;;;;;117.23;44.13;;;;;;;;;;6298485;22;20019;-91
2023/12/02 08:24:16;;;;;;;110.07;42.93;;;;;;;;;;6271871;22;20131;-90
2023/12/02 08:26:42;;;;;;;114.87;42.90;;;;;;;;;;6257011;22;20003;-91
2023/12/02 08:29:07;;;;;;;108.97;43.33;;;;;;;;;;6264467;22;20051;-91
2023/12/02 08:31:32;;;;;;;111.87;43.50;;;;;;;;;;6272047;22;20015;-92
2023/12/02 08:33:58;;;;;;;104.90;42.30;;;;;;;;;;6302097;22;20015;-91
2023/12/02 08:36:23;;;;;;;103.87;40.77;;;;;;;;;;6299432;22;19984;-91
2023/12/02 08:38:48;;;;;;;105.93;41.30;;;;;;;;;;6273997;22;20000;-92
